sensor_id;sensor_type;location;lat;lon;timestamp;pressure;altitude;pressure_sealevel;temperature;humidity
85000;BME280;75320;51.608;7.952;2024-02-23T07:03:58;98602.44;;;7.23;67.68
85000;BME280;75320;51.608;7.952;2024-02-23T07:06:24;98590.28;;;7.35;65.34
85000;BME280;75320;51.608;7.952;2024-02-23T07:08:50;98593.28;;;7.96;64.10
85000;BME280;75320;51.608;7.952;2024-02-23T07:11:15;98583.22;;;8.30;62.61
85000;BME280;75320;51.608;7.952;2024-02-23T07:13:43;98588.53;;;8.48;61.77
85000;BME280;75320;51.608;7.952;2024-02-23T07:16:09;98582.91;;;8.45;62.78
85000;BME280;75320;51.608;7.952;2024-02-23T07:18:36;98574.44;;;8.43;61.79
85000;BME280;75320;51.608;7.952;2024-02-23T07:21:01;98578.19;;;8.54;60.91
85000;BME280;75320;51.608;7.952;2024-02-23T07:23:26;98580.38;;;9.06;61.14
85000;BME280;75320;51.608;7.952;2024-02-23T07:25:52;98576.91;;;8.00;62.59
85000;BME280;75320;51.608;7.952;2024-02-23T07:28:18;98596.06;;;8.07;63.22
85000;BME280;75320;51.608;7.952;2024-02-23T07:30:48;98598.84;;;7.74;65.24
85000;BME280;75320;51.608;7.952;2024-02-23T07:33:13;98603.03;;;7.25;65.45
85000;BME280;75320;51.608;7.952;2024-02-23T07:35:38;98594.00;;;7.01;67.01
85000;BME280;75320;51.608;7.952;2024-02-23T07:38:04;98594.63;;;6.77;67.05
85000;BME280;75320;51.608;7.952;2024-02-23T07:40:29;98590.16;;;7.10;68.64
85000;BME280;75320;51.608;7.952;2024-02-23T07:42:57;98584.16;;;6.77;66.93
85000;BME280;75320;51.608;7.952;2024-02-23T07:45:22;98590.19;;;6.77;67.36
85000;BME280;75320;51.608;7.952;2024-02-23T07:47:47;98578.53;;;6.67;67.97
85000;BME280;75320;51.608;7.952;2024-02-23T07:50:14;98597.25;;;6.70;68.74
85000;BME280;75320;51.608;7.952;2024-02-23T07:52:41;98587.78;;;6.76;68.01
85000;BME280;75320;51.608;7.952;2024-02-23T07:55:06;98605.31;;;6.69;68.18
85000;BME280;75320;51.608;7.952;2024-02-23T07:57:32;98596.84;;;6.80;68.26
85000;BME280;75320;51.608;7.952;2024-02-23T07:59:58;98589.97;;;6.85;68.26
85000;BME280;75320;51.608;7.952;2024-02-23T08:02:27;98599.88;;;6.70;66.95
85000;BME280;75320;51.608;7.952;2024-02-23T08:04:52;98599.03;;;6.83;69.11
85000;BME280;75320;51.608;7.952;2024-02-23T08:07:17;98592.59;;;6.92;68.94
85000;BME280;75320;51.608;7.952;2024-02-23T08:09:44;98615.38;;;6.72;66.89
85000;BME280;75320;51.608;7.952;2024-02-23T08:12:10;98609.72;;;6.68;68.07
85000;BME280;75320;51.608;7.952;2024-02-23T08:14:36;98614.56;;;6.91;69.28
85000;BME280;75320;51.608;7.952;2024-02-23T08:17:02;98619.22;;;6.95;68.74
85000;BME280;75320;51.608;7.952;2024-02-23T08:19:27;98611.34;;;6.89;68.16
85000;BME280;75320;51.608;7.952;2024-02-23T08:21:53;98618.78;;;6.92;67.40
85000;BME280;75320;51.608;7.952;2024-02-23T08:24:19;98624.44;;;6.82;68.08
85000;BME280;75320;51.608;7.952;2024-02-23T08:26:46;98619.41;;;6.87;67.18
85000;BME280;75320;51.608;7.952;2024-02-23T08:29:11;98625.84;;;6.91;68.43
85000;BME280;75320;51.608;7.952;2024-02-23T08:31:36;98617.97;;;6.91;68.32
85000;BME280;75320;51.608;7.952;2024-02-23T08:34:02;98638.31;;;7.09;67.89
85000;BME280;75320;51.608;7.952;2024-02-23T08:36:27;98626.66;;;6.92;66.93
85000;BME280;75320;51.608;7.952;2024-02-23T08:38:55;98635.09;;;7.07;67.11
85000;BME280;75320;51.608;7.952;2024-02-23T08:41:22;98638.75;;;7.13;67.80
85000;BME280;75320;51.608;7.952;2024-02-23T08:43:47;98644.97;;;7.05;67.18
85000;BME280;75320;51.608;7.952;2024-02-23T08:46:14;98642.16;;;7.07;67.42
85000;BME280;75320;51.608;7.952;2024-02-23T08:48:39;98658.50;;;7.09;67.47
85000;BME280;75320;51.608;7.952;2024-02-23T08:51:04;98657.25;;;7.05;66.91
85000;BME280;75320;51.608;7.952;2024-02-23T08:53:29;98664.94;;;7.19;67.10
85000;BME280;75320;51.608;7.952;2024-02-23T08:55:56;98669.38;;;7.25;66.60
85000;BME280;75320;51.608;7.952;2024-02-23T08:58:21;98679.41;;;7.35;66.60
85000;BME280;75320;51.608;7.952;2024-02-23T09:00:46;98677.41;;;7.37;64.81
85000;BME280;75320;51.608;7.952;2024-02-23T09:03:13;98674.59;;;7.32;64.86
85000;BME280;75320;51.608;7.952;2024-02-23T09:05:39;98674.16;;;7.48;66.49
85000;BME280;75320;51.608;7.952;2024-02-23T09:08:05;98665.66;;;7.52;66.90
85000;BME280;75320;51.608;7.952;2024-02-23T09:10:31;98680.16;;;7.68;65.16
85000;BME280;75320;51.608;7.952;2024-02-23T09:12:57;98678.38;;;7.62;63.08
85000;BME280;75320;51.608;7.952;2024-02-23T09:15:22;98682.59;;;7.63;64.63
85000;BME280;75320;51.608;7.952;2024-02-23T09:17:47;98683.41;;;7.63;65.16
85000;BME280;75320;51.608;7.952;2024-02-23T09:20:13;98685.78;;;7.71;65.15
85000;BME280;75320;51.608;7.952;2024-02-23T09:22:38;98679.28;;;7.87;65.16
85000;BME280;75320;51.608;7.952;2024-02-23T09:25:05;98674.25;;;7.86;64.71
85000;BME280;75320;51.608;7.952;2024-02-23T09:27:31;98679.50;;;7.86;65.00
85000;BME280;75320;51.608;7.952;2024-02-23T09:29:56;98675.25;;;7.91;62.86
85000;BME280;75320;51.608;7.952;2024-02-23T09:32:23;98663.56;;;7.87;63.57
85000;BME280;75320;51.608;7.952;2024-02-23T09:34:49;98669.19;;;7.84;63.55
85000;BME280;75320;51.608;7.952;2024-02-23T09:37:14;98671.63;;;7.92;63.96
85000;BME280;75320;51.608;7.952;2024-02-23T09:39:39;98675.00;;;7.99;62.46
85000;BME280;75320;51.608;7.952;2024-02-23T09:42:09;98670.53;;;8.06;62.71
85000;BME280;75320;51.608;7.952;2024-02-23T09:44:35;98649.94;;;8.03;63.22
85000;BME280;75320;51.608;7.952;2024-02-23T09:47:03;98662.69;;;8.44;64.00
85000;BME280;75320;51.608;7.952;2024-02-23T09:49:37;98670.88;;;8.61;62.43
85000;BME280;75320;51.608;7.952;2024-02-23T09:52:05;98659.00;;;8.52;62.97
85000;BME280;75320;51.608;7.952;2024-02-23T09:54:31;98675.72;;;8.26;61.99
85000;BME280;75320;51.608;7.952;2024-02-23T09:56:57;98677.94;;;8.22;62.72
85000;BME280;75320;51.608;7.952;2024-02-23T09:59:23;98666.63;;;8.22;62.22
85000;BME280;75320;51.608;7.952;2024-02-23T10:01:53;98672.78;;;8.47;62.94
85000;BME280;75320;51.608;7.952;2024-02-23T10:04:19;98671.25;;;8.64;62.81
85000;BME280;75320;51.608;7.952;2024-02-23T10:06:44;98643.00;;;8.60;61.87
85000;BME280;75320;51.608;7.952;2024-02-23T10:09:09;98671.03;;;8.97;62.55
85000;BME280;75320;51.608;7.952;2024-02-23T10:11:37;98678.00;;;9.09;62.01
85000;BME280;75320;51.608;7.952;2024-02-23T10:14:02;98674.28;;;9.17;62.79
85000;BME280;75320;51.608;7.952;2024-02-23T10:16:28;98653.22;;;8.99;60.84
85000;BME280;75320;51.608;7.952;2024-02-23T10:18:53;98669.59;;;9.44;61.42
85000;BME280;75320;51.608;7.952;2024-02-23T10:21:19;98664.72;;;9.83;60.95
85000;BME280;75320;51.608;7.952;2024-02-23T10:23:45;98676.53;;;9.56;58.51
85000;BME280;75320;51.608;7.952;2024-02-23T10:26:11;98665.38;;;8.93;58.32
85000;BME280;75320;51.608;7.952;2024-02-23T10:28:39;98674.50;;;9.15;59.95
85000;BME280;75320;51.608;7.952;2024-02-23T10:31:05;98675.31;;;9.16;60.78
85000;BME280;75320;51.608;7.952;2024-02-23T10:33:30;98670.34;;;8.77;60.47
85000;BME280;75320;51.608;7.952;2024-02-23T10:35:57;98653.97;;;9.49;58.74
85000;BME280;75320;51.608;7.952;2024-02-23T10:38:26;98658.38;;;10.39;56.85
85000;BME280;75320;51.608;7.952;2024-02-23T10:40:55;98657.69;;;10.96;55.62
85000;BME280;75320;51.608;7.952;2024-02-23T10:46:21;98664.00;;;10.84;55.00
85000;BME280;75320;51.608;7.952;2024-02-23T10:48:48;98661.22;;;10.37;56.55
85000;BME280;75320;51.608;7.952;2024-02-23T10:51:14;98677.78;;;9.72;58.27
85000;BME280;75320;51.608;7.952;2024-02-23T10:53:40;98679.97;;;9.93;58.73
85000;BME280;75320;51.608;7.952;2024-02-23T10:56:07;98664.28;;;9.68;59.08
85000;BME280;75320;51.608;7.952;2024-02-23T10:58:32;98673.03;;;9.44;59.08
85000;BME280;75320;51.608;7.952;2024-02-23T11:01:00;98677.25;;;9.45;59.28
85000;BME280;75320;51.608;7.952;2024-02-23T11:03:28;98668.50;;;9.51;59.58
85000;BME280;75320;51.608;7.952;2024-02-23T11:05:55;98674.13;;;10.09;58.87
85000;BME280;75320;51.608;7.952;2024-02-23T11:08:21;98672.00;;;9.99;58.39
85000;BME280;75320;51.608;7.952;2024-02-23T11:10:50;98678.88;;;9.64;58.38
85000;BME280;75320;51.608;7.952;2024-02-23T11:13:18;98677.91;;;9.41;58.35
85000;BME280;75320;51.608;7.952;2024-02-23T11:15:43;98690.91;;;9.36;58.55
85000;BME280;75320;51.608;7.952;2024-02-23T11:18:41;98687.84;;;9.39;59.22
85000;BME280;75320;51.608;7.952;2024-02-23T11:21:09;98686.19;;;9.44;59.53
85000;BME280;75320;51.608;7.952;2024-02-23T11:23:49;98679.81;;;9.52;59.10
85000;BME280;75320;51.608;7.952;2024-02-23T11:26:17;98664.72;;;9.65;59.66
85000;BME280;75320;51.608;7.952;2024-02-23T11:28:50;98673.34;;;9.72;58.51
85000;BME280;75320;51.608;7.952;2024-02-23T11:31:22;98660.38;;;9.71;59.55
85000;BME280;75320;51.608;7.952;2024-02-23T11:33:52;98672.75;;;10.07;57.55
85000;BME280;75320;51.608;7.952;2024-02-23T11:36:39;98665.84;;;10.05;57.84
85000;BME280;75320;51.608;7.952;2024-02-23T11:39:05;98670.19;;;10.00;59.38
85000;BME280;75320;51.608;7.952;2024-02-23T11:41:30;98684.31;;;9.87;58.97
85000;BME280;75320;51.608;7.952;2024-02-23T11:43:56;98685.19;;;9.63;59.49
85000;BME280;75320;51.608;7.952;2024-02-23T11:46:25;98664.41;;;9.55;58.60
85000;BME280;75320;51.608;7.952;2024-02-23T11:48:51;98684.66;;;9.55;58.97
85000;BME280;75320;51.608;7.952;2024-02-23T11:51:21;98646.66;;;9.51;58.90
85000;BME280;75320;51.608;7.952;2024-02-23T11:53:47;98649.13;;;9.46;58.83
85000;BME280;75320;51.608;7.952;2024-02-23T11:56:12;98668.88;;;9.73;58.22
85000;BME280;75320;51.608;7.952;2024-02-23T11:58:39;98667.72;;;9.87;58.36
85000;BME280;75320;51.608;7.952;2024-02-23T12:01:05;98659.81;;;9.87;58.00
85000;BME280;75320;51.608;7.952;2024-02-23T12:03:32;98665.72;;;10.00;59.68
85000;BME280;75320;51.608;7.952;2024-02-23T12:06:00;98659.19;;;10.03;57.94
85000;BME280;75320;51.608;7.952;2024-02-23T12:08:26;98648.31;;;9.81;57.89
85000;BME280;75320;51.608;7.952;2024-02-23T12:10:54;98644.09;;;9.98;57.73
85000;BME280;75320;51.608;7.952;2024-02-23T12:13:19;98657.41;;;9.85;59.00
85000;BME280;75320;51.608;7.952;2024-02-23T12:15:46;98650.25;;;9.74;60.34
85000;BME280;75320;51.608;7.952;2024-02-23T12:18:13;98659.88;;;9.80;59.30
85000;BME280;75320;51.608;7.952;2024-02-23T12:20:41;98648.78;;;9.78;59.13
85000;BME280;75320;51.608;7.952;2024-02-23T12:23:06;98649.16;;;9.64;61.32
85000;BME280;75320;51.608;7.952;2024-02-23T12:25:35;98639.72;;;9.74;61.23
85000;BME280;75320;51.608;7.952;2024-02-23T12:28:00;98658.13;;;9.74;58.70
85000;BME280;75320;51.608;7.952;2024-02-23T12:30:26;98656.81;;;9.65;59.10
85000;BME280;75320;51.608;7.952;2024-02-23T12:33:03;98661.19;;;9.71;59.40
85000;BME280;75320;51.608;7.952;2024-02-23T12:35:30;98667.34;;;9.83;59.98
85000;BME280;75320;51.608;7.952;2024-02-23T12:37:55;98666.22;;;9.73;60.00
85000;BME280;75320;51.608;7.952;2024-02-23T12:40:20;98654.59;;;9.62;59.22
85000;BME280;75320;51.608;7.952;2024-02-23T12:42:45;98663.91;;;9.83;60.77
85000;BME280;75320;51.608;7.952;2024-02-23T12:45:15;98659.59;;;9.88;60.27
85000;BME280;75320;51.608;7.952;2024-02-23T12:47:40;98666.47;;;9.71;59.88
85000;BME280;75320;51.608;7.952;2024-02-23T12:50:06;98660.38;;;9.71;59.10
85000;BME280;75320;51.608;7.952;2024-02-23T12:52:33;98653.88;;;9.73;60.08
85000;BME280;75320;51.608;7.952;2024-02-23T12:54:59;98662.88;;;9.84;59.59
85000;BME280;75320;51.608;7.952;2024-02-23T12:57:24;98652.50;;;9.71;60.00
85000;BME280;75320;51.608;7.952;2024-02-23T12:59:49;98647.03;;;9.72;60.10
85000;BME280;75320;51.608;7.952;2024-02-23T13:02:14;98667.72;;;9.87;60.57
85000;BME280;75320;51.608;7.952;2024-02-23T13:04:43;98669.47;;;9.75;59.56
85000;BME280;75320;51.608;7.952;2024-02-23T13:07:14;98650.66;;;9.71;60.19
85000;BME280;75320;51.608;7.952;2024-02-23T13:09:39;98661.94;;;9.78;60.08
85000;BME280;75320;51.608;7.952;2024-02-23T13:12:04;98663.09;;;9.64;60.85
85000;BME280;75320;51.608;7.952;2024-02-23T13:14:30;98664.41;;;9.73;61.86
85000;BME280;75320;51.608;7.952;2024-02-23T13:16:56;98673.13;;;9.74;61.25
85000;BME280;75320;51.608;7.952;2024-02-23T13:19:23;98667.63;;;9.57;61.48
85000;BME280;75320;51.608;7.952;2024-02-23T13:21:48;98671.94;;;9.52;60.27
85000;BME280;75320;51.608;7.952;2024-02-23T13:24:13;98660.22;;;9.48;61.04
85000;BME280;75320;51.608;7.952;2024-02-23T13:26:39;98668.19;;;9.41;60.71
85000;BME280;75320;51.608;7.952;2024-02-23T13:29:06;98668.78;;;9.43;61.94
85000;BME280;75320;51.608;7.952;2024-02-23T13:31:35;98655.84;;;9.42;62.16
85000;BME280;75320;51.608;7.952;2024-02-23T13:34:00;98672.16;;;9.50;60.94
85000;BME280;75320;51.608;7.952;2024-02-23T13:36:25;98671.56;;;9.48;58.84
85000;BME280;75320;51.608;7.952;2024-02-23T13:38:52;98667.91;;;9.49;57.69
85000;BME280;75320;51.608;7.952;2024-02-23T13:41:17;98670.09;;;9.34;59.00
85000;BME280;75320;51.608;7.952;2024-02-23T13:43:43;98657.47;;;9.43;58.92
85000;BME280;75320;51.608;7.952;2024-02-23T13:46:08;98659.44;;;9.47;58.50
85000;BME280;75320;51.608;7.952;2024-02-23T13:48:35;98659.22;;;9.49;58.71
85000;BME280;75320;51.608;7.952;2024-02-23T13:51:01;98667.47;;;9.52;57.27
85000;BME280;75320;51.608;7.952;2024-02-23T13:53:29;98679.88;;;9.45;57.19
85000;BME280;75320;51.608;7.952;2024-02-23T13:55:56;98680.53;;;9.41;59.06
85000;BME280;75320;51.608;7.952;2024-02-23T13:58:21;98672.72;;;9.34;59.29
85000;BME280;75320;51.608;7.952;2024-02-23T14:00:46;98674.09;;;9.37;60.12
85000;BME280;75320;51.608;7.952;2024-02-23T14:03:16;98691.22;;;9.46;59.99
85000;BME280;75320;51.608;7.952;2024-02-23T14:05:43;98694.50;;;9.41;60.41
85000;BME280;75320;51.608;7.952;2024-02-23T14:08:10;98690.91;;;9.36;61.03
85000;BME280;75320;51.608;7.952;2024-02-23T14:10:35;98678.69;;;9.23;60.42
85000;BME280;75320;51.608;7.952;2024-02-23T14:13:02;98685.31;;;9.25;61.51
85000;BME280;75320;51.608;7.952;2024-02-23T14:15:28;98698.09;;;9.22;60.35
85000;BME280;75320;51.608;7.952;2024-02-23T14:17:53;98701.78;;;9.21;60.14
85000;BME280;75320;51.608;7.952;2024-02-23T14:20:18;98696.50;;;9.21;61.37
85000;BME280;75320;51.608;7.952;2024-02-23T14:22:44;98692.56;;;9.30;61.01
85000;BME280;75320;51.608;7.952;2024-02-23T14:25:10;98693.81;;;9.27;60.71
85000;BME280;75320;51.608;7.952;2024-02-23T14:27:36;98698.56;;;9.37;60.91
85000;BME280;75320;51.608;7.952;2024-02-23T14:30:01;98706.75;;;9.29;61.14
85000;BME280;75320;51.608;7.952;2024-02-23T14:32:27;98712.19;;;9.34;61.83
85000;BME280;75320;51.608;7.952;2024-02-23T14:34:52;98707.06;;;9.39;60.82
85000;BME280;75320;51.608;7.952;2024-02-23T14:37:19;98702.38;;;9.41;61.18
85000;BME280;75320;51.608;7.952;2024-02-23T14:39:44;98704.06;;;9.36;60.78
85000;BME280;75320;51.608;7.952;2024-02-23T14:42:09;98710.84;;;9.43;61.94
85000;BME280;75320;51.608;7.952;2024-02-23T14:44:35;98715.13;;;9.44;61.85
85000;BME280;75320;51.608;7.952;2024-02-23T14:47:01;98711.31;;;9.40;61.27
85000;BME280;75320;51.608;7.952;2024-02-23T14:49:28;98711.38;;;9.34;61.08
85000;BME280;75320;51.608;7.952;2024-02-23T14:51:53;98714.63;;;9.29;60.67
85000;BME280;75320;51.608;7.952;2024-02-23T14:54:18;98716.50;;;9.22;61.91
85000;BME280;75320;51.608;7.952;2024-02-23T14:56:44;98722.00;;;9.20;63.69
85000;BME280;75320;51.608;7.952;2024-02-23T14:59:09;98723.50;;;9.10;63.00
85000;BME280;75320;51.608;7.952;2024-02-23T15:01:37;98719.25;;;9.09;64.32
85000;BME280;75320;51.608;7.952;2024-02-23T15:04:03;98725.53;;;9.08;63.48
85000;BME280;75320;51.608;7.952;2024-02-23T15:06:28;98727.75;;;9.04;64.17
85000;BME280;75320;51.608;7.952;2024-02-23T15:08:55;98733.66;;;9.00;64.46
85000;BME280;75320;51.608;7.952;2024-02-23T15:11:20;98726.22;;;8.97;65.49
85000;BME280;75320;51.608;7.952;2024-02-23T15:13:46;98731.03;;;9.00;65.22
85000;BME280;75320;51.608;7.952;2024-02-23T15:16:12;98712.31;;;8.90;64.88
85000;BME280;75320;51.608;7.952;2024-02-23T15:18:37;98734.09;;;8.97;64.70
85000;BME280;75320;51.608;7.952;2024-02-23T15:21:03;98729.25;;;8.94;64.48
85000;BME280;75320;51.608;7.952;2024-02-23T15:23:28;98723.84;;;8.89;65.16
85000;BME280;75320;51.608;7.952;2024-02-23T15:25:55;98725.81;;;8.93;64.99
85000;BME280;75320;51.608;7.952;2024-02-23T15:28:20;98714.16;;;8.83;64.99
85000;BME280;75320;51.608;7.952;2024-02-23T15:30:52;98720.88;;;8.79;65.73
85000;BME280;75320;51.608;7.952;2024-02-23T15:33:18;98709.19;;;8.75;65.80
85000;BME280;75320;51.608;7.952;2024-02-23T15:35:45;98711.00;;;8.74;66.42
85000;BME280;75320;51.608;7.952;2024-02-23T15:38:11;98721.34;;;8.69;66.15
85000;BME280;75320;51.608;7.952;2024-02-23T15:40:36;98711.28;;;8.60;66.26
85000;BME280;75320;51.608;7.952;2024-02-23T15:43:02;98725.41;;;8.65;66.78
85000;BME280;75320;51.608;7.952;2024-02-23T15:45:30;98726.78;;;8.68;66.55
85000;BME280;75320;51.608;7.952;2024-02-23T15:47:55;98720.31;;;8.70;66.84
85000;BME280;75320;51.608;7.952;2024-02-23T15:50:20;98720.94;;;8.66;67.50
85000;BME280;75320;51.608;7.952;2024-02-23T15:52:47;98731.31;;;8.61;66.99
85000;BME280;75320;51.608;7.952;2024-02-23T15:55:14;98722.38;;;8.62;66.74
85000;BME280;75320;51.608;7.952;2024-02-23T15:57:39;98727.88;;;8.60;66.95
85000;BME280;75320;51.608;7.952;2024-02-23T16:00:06;98725.81;;;8.62;65.79
85000;BME280;75320;51.608;7.952;2024-02-23T16:02:35;98704.88;;;8.49;66.57
85000;BME280;75320;51.608;7.952;2024-02-23T16:05:01;98728.72;;;8.54;66.78
85000;BME280;75320;51.608;7.952;2024-02-23T16:07:27;98733.16;;;8.54;66.59
85000;BME280;75320;51.608;7.952;2024-02-23T16:09:53;98721.13;;;8.39;65.65
85000;BME280;75320;51.608;7.952;2024-02-23T16:12:18;98715.84;;;8.46;67.27
85000;BME280;75320;51.608;7.952;2024-02-23T16:14:43;98731.22;;;8.36;67.19
85000;BME280;75320;51.608;7.952;2024-02-23T16:17:09;98732.06;;;8.30;67.29
85000;BME280;75320;51.608;7.952;2024-02-23T16:19:34;98716.09;;;8.18;67.80
85000;BME280;75320;51.608;7.952;2024-02-23T16:22:00;98705.09;;;7.97;67.73
85000;BME280;75320;51.608;7.952;2024-02-23T16:24:26;98732.28;;;8.15;68.38
85000;BME280;75320;51.608;7.952;2024-02-23T16:26:51;98737.75;;;8.14;68.20
85000;BME280;75320;51.608;7.952;2024-02-23T16:29:16;98725.03;;;8.11;67.61
85000;BME280;75320;51.608;7.952;2024-02-23T16:31:41;98730.47;;;8.16;68.11
85000;BME280;75320;51.608;7.952;2024-02-23T16:34:07;98729.06;;;8.13;68.26
85000;BME280;75320;51.608;7.952;2024-02-23T16:36:33;98739.38;;;8.08;68.83
85000;BME280;75320;51.608;7.952;2024-02-23T16:38:59;98722.22;;;8.06;68.72
85000;BME280;75320;51.608;7.952;2024-02-23T16:41:24;98727.31;;;8.01;68.92
85000;BME280;75320;51.608;7.952;2024-02-23T16:43:49;98735.97;;;7.95;69.50
85000;BME280;75320;51.608;7.952;2024-02-23T16:46:15;98742.25;;;7.94;69.52
85000;BME280;75320;51.608;7.952;2024-02-23T16:48:41;98737.38;;;7.97;68.82
85000;BME280;75320;51.608;7.952;2024-02-23T16:51:07;98737.00;;;7.94;68.21
85000;BME280;75320;51.608;7.952;2024-02-23T16:53:33;98730.75;;;7.88;68.18
85000;BME280;75320;51.608;7.952;2024-02-23T16:55:58;98742.25;;;7.87;68.21
85000;BME280;75320;51.608;7.952;2024-02-23T16:58:28;98752.75;;;7.87;69.02
85000;BME280;75320;51.608;7.952;2024-02-23T17:00:59;98747.13;;;7.77;68.87
85000;BME280;75320;51.608;7.952;2024-02-23T17:03:25;98752.19;;;7.72;68.44
85000;BME280;75320;51.608;7.952;2024-02-23T17:05:52;98751.19;;;7.66;69.21
85000;BME280;75320;51.608;7.952;2024-02-23T17:08:18;98760.28;;;7.64;69.03
85000;BME280;75320;51.608;7.952;2024-02-23T17:10:43;98765.72;;;7.56;69.61
85000;BME280;75320;51.608;7.952;2024-02-23T17:13:09;98763.91;;;7.43;70.22
85000;BME280;75320;51.608;7.952;2024-02-23T17:15:34;98770.16;;;7.42;70.04
85000;BME280;75320;51.608;7.952;2024-02-23T17:17:59;98766.72;;;7.35;70.08
85000;BME280;75320;51.608;7.952;2024-02-23T17:20:24;98774.38;;;7.37;70.00
85000;BME280;75320;51.608;7.952;2024-02-23T17:22:51;98788.53;;;7.36;70.09
85000;BME280;75320;51.608;7.952;2024-02-23T17:25:18;98765.31;;;7.20;69.90
85000;BME280;75320;51.608;7.952;2024-02-23T17:27:44;98769.78;;;7.19;70.47
85000;BME280;75320;51.608;7.952;2024-02-23T17:30:10;98777.63;;;7.13;71.09
85000;BME280;75320;51.608;7.952;2024-02-23T17:32:36;98775.38;;;7.10;70.32
85000;BME280;75320;51.608;7.952;2024-02-23T17:35:01;98785.03;;;7.03;69.99
85000;BME280;75320;51.608;7.952;2024-02-23T17:37:28;98780.38;;;6.91;70.84
85000;BME280;75320;51.608;7.952;2024-02-23T17:39:55;98791.09;;;6.96;70.55
85000;BME280;75320;51.608;7.952;2024-02-23T17:42:21;98794.13;;;6.93;71.16
85000;BME280;75320;51.608;7.952;2024-02-23T17:44:48;98792.88;;;6.89;71.03
85000;BME280;75320;51.608;7.952;2024-02-23T17:47:13;98801.72;;;6.75;71.49
85000;BME280;75320;51.608;7.952;2024-02-23T17:49:38;98790.41;;;6.68;72.01
85000;BME280;75320;51.608;7.952;2024-02-23T17:52:04;98800.72;;;6.70;71.43
85000;BME280;75320;51.608;7.952;2024-02-23T17:54:29;98799.91;;;6.69;71.29
85000;BME280;75320;51.608;7.952;2024-02-23T17:56:55;98797.44;;;6.68;72.30
85000;BME280;75320;51.608;7.952;2024-02-23T17:59:20;98804.09;;;6.70;71.52
85000;BME280;75320;51.608;7.952;2024-02-23T18:01:45;98804.47;;;6.54;71.91
85000;BME280;75320;51.608;7.952;2024-02-23T18:04:12;98811.88;;;6.51;72.10
85000;BME280;75320;51.608;7.952;2024-02-23T18:06:37;98805.06;;;6.50;73.26
85000;BME280;75320;51.608;7.952;2024-02-23T18:09:02;98808.50;;;6.50;72.37
85000;BME280;75320;51.608;7.952;2024-02-23T18:11:29;98815.16;;;6.59;72.74
85000;BME280;75320;51.608;7.952;2024-02-23T18:13:54;98818.00;;;6.64;72.00
85000;BME280;75320;51.608;7.952;2024-02-23T18:16:21;98823.03;;;6.66;72.08
85000;BME280;75320;51.608;7.952;2024-02-23T18:18:47;98803.69;;;6.60;72.34
85000;BME280;75320;51.608;7.952;2024-02-23T18:21:13;98817.63;;;6.74;72.21
85000;BME280;75320;51.608;7.952;2024-02-23T18:23:42;98817.63;;;6.74;72.32
85000;BME280;75320;51.608;7.952;2024-02-23T18:26:07;98822.66;;;6.75;72.18
85000;BME280;75320;51.608;7.952;2024-02-23T18:28:33;98814.81;;;6.75;71.96
85000;BME280;75320;51.608;7.952;2024-02-23T18:30:58;98814.59;;;6.77;72.18
85000;BME280;75320;51.608;7.952;2024-02-23T18:33:24;98810.78;;;6.79;72.38
85000;BME280;75320;51.608;7.952;2024-02-23T18:35:49;98820.28;;;6.80;71.41
85000;BME280;75320;51.608;7.952;2024-02-23T18:38:14;98817.06;;;6.85;71.90
85000;BME280;75320;51.608;7.952;2024-02-23T18:40:41;98823.53;;;6.89;71.29
85000;BME280;75320;51.608;7.952;2024-02-23T18:43:06;98812.00;;;6.83;71.58
85000;BME280;75320;51.608;7.952;2024-02-23T18:45:33;98821.31;;;6.92;70.54
85000;BME280;75320;51.608;7.952;2024-02-23T18:47:59;98814.47;;;6.98;70.58
85000;BME280;75320;51.608;7.952;2024-02-23T18:50:26;98822.31;;;6.98;70.30
85000;BME280;75320;51.608;7.952;2024-02-23T18:52:51;98820.50;;;6.98;70.56
85000;BME280;75320;51.608;7.952;2024-02-23T18:55:17;98835.63;;;6.96;70.84
85000;BME280;75320;51.608;7.952;2024-02-23T18:57:42;98831.19;;;6.97;71.30
85000;BME280;75320;51.608;7.952;2024-02-23T19:00:08;98842.50;;;6.97;71.08
85000;BME280;75320;51.608;7.952;2024-02-23T19:02:34;98838.66;;;7.00;70.52
85000;BME280;75320;51.608;7.952;2024-02-23T19:05:00;98843.72;;;7.02;70.14
85000;BME280;75320;51.608;7.952;2024-02-23T19:07:26;98836.03;;;7.00;70.56
85000;BME280;75320;51.608;7.952;2024-02-23T19:09:52;98840.91;;;7.10;69.72
85000;BME280;75320;51.608;7.952;2024-02-23T19:12:18;98837.44;;;7.03;69.93
85000;BME280;75320;51.608;7.952;2024-02-23T19:14:43;98841.09;;;7.08;69.73
85000;BME280;75320;51.608;7.952;2024-02-23T19:17:08;98843.13;;;7.06;70.15
85000;BME280;75320;51.608;7.952;2024-02-23T19:19:35;98847.53;;;6.99;70.11
85000;BME280;75320;51.608;7.952;2024-02-23T19:22:00;98842.91;;;7.01;70.32
85000;BME280;75320;51.608;7.952;2024-02-23T19:24:27;98838.88;;;7.05;69.47
85000;BME280;75320;51.608;7.952;2024-02-23T19:26:55;98834.81;;;7.03;69.11
85000;BME280;75320;51.608;7.952;2024-02-23T19:29:20;98848.94;;;7.02;69.59
85000;BME280;75320;51.608;7.952;2024-02-23T19:31:46;98850.97;;;7.00;70.14
85000;BME280;75320;51.608;7.952;2024-02-23T19:34:11;98849.72;;;6.89;70.61
85000;BME280;75320;51.608;7.952;2024-02-23T19:36:38;98860.81;;;6.91;69.78
85000;BME280;75320;51.608;7.952;2024-02-23T19:39:06;98846.78;;;6.64;71.37
85000;BME280;75320;51.608;7.952;2024-02-23T19:41:42;98861.13;;;6.68;71.48
85000;BME280;75320;51.608;7.952;2024-02-23T19:44:08;98866.91;;;6.57;71.90
85000;BME280;75320;51.608;7.952;2024-02-23T19:46:34;98855.81;;;6.55;71.58
85000;BME280;75320;51.608;7.952;2024-02-23T19:48:59;98870.66;;;6.42;72.21
85000;BME280;75320;51.608;7.952;2024-02-23T19:51:26;98868.19;;;6.34;71.91
85000;BME280;75320;51.608;7.952;2024-02-23T19:53:51;98873.38;;;6.21;72.99
85000;BME280;75320;51.608;7.952;2024-02-23T19:56:17;98865.88;;;6.17;72.17
85000;BME280;75320;51.608;7.952;2024-02-23T19:58:42;98883.38;;;6.17;72.54
85000;BME280;75320;51.608;7.952;2024-02-23T20:01:09;98880.19;;;6.22;72.94
85000;BME280;75320;51.608;7.952;2024-02-23T20:03:35;98872.31;;;6.15;73.12
85000;BME280;75320;51.608;7.952;2024-02-23T20:06:01;98881.78;;;6.16;72.87
85000;BME280;75320;51.608;7.952;2024-02-23T20:08:26;98871.06;;;6.11;72.62
85000;BME280;75320;51.608;7.952;2024-02-23T20:10:51;98880.31;;;6.07;72.92